METAR Gardermoen

ENGM 240820Z 00000KT 0300 0150NE R19R/0650N R01R/0300N FZFG VV001 M08/M09 Q1021 TEMPO 500 FZFG OVC002

Webcam Kjeller

Webcam Eggemoen